Home > Products > Valid Products > TAF

000
FTUS42 KMFL 272104 AAA
TAFFLL
TAF AMD
KFLL 272104Z 2721/2818 08011KT P6SM FEW035 FEW250
     FM280400 09012KT P6SM FEW030
     FM281400 09015KT P6SM SCT030 BKN040=



000
FTUS42 KMFL 272104 AAA
TAFFLL
TAF AMD
KFLL 272104Z 2721/2818 08011KT P6SM FEW035 FEW250
     FM280400 09012KT P6SM FEW030
     FM281400 09015KT P6SM SCT030 BKN040=



000
FTUS42 KMFL 272104 AAA
TAFAPF
TAF AMD
KAPF 272104Z 2721/2818 08012KT P6SM VCSH SCT080
     FM280100 06006KT P6SM FEW100
     FM281400 08011KT P6SM FEW050=



000
FTUS42 KMFL 272104 AAA
TAFPBI
TAF AMD
KPBI 272104Z 2721/2818 09012KT P6SM SCT040
      TEMPO 2721/2723 BKN040
     FM280300 08011KT P6SM FEW030
     FM281400 08015KT P6SM SCT030 BKN040=



000
FTUS42 KMFL 272104 AAA
TAFMIA
TAF AMD
KMIA 272104Z 2721/2818 06011KT P6SM FEW040 SCT300
     FM280600 08008KT P6SM FEW025
     FM281400 08013KT P6SM SCT030 BKN040=



000
FTUS42 KMFL 272104 AAA
TAFMIA
TAF AMD
KMIA 272104Z 2721/2818 06011KT P6SM FEW040 SCT300
     FM280600 08008KT P6SM FEW025
     FM281400 08013KT P6SM SCT030 BKN040=



000
FTUS42 KMFL 272104 AAA
TAFAPF
TAF AMD
KAPF 272104Z 2721/2818 08012KT P6SM VCSH SCT080
     FM280100 06006KT P6SM FEW100
     FM281400 08011KT P6SM FEW050=



000
FTUS42 KMFL 272104 AAA
TAFPBI
TAF AMD
KPBI 272104Z 2721/2818 09012KT P6SM SCT040
      TEMPO 2721/2723 BKN040
     FM280300 08011KT P6SM FEW030
     FM281400 08015KT P6SM SCT030 BKN040=



000
FTUS42 KMFL 271734
TAFAPF
TAF
KAPF 271734Z 2718/2818 05011KT P6SM SCT050 SCT060
     FM271900 23008KT P6SM VCSH BKN050
     FM280100 06006KT P6SM FEW100
     FM281400 08011KT P6SM FEW050=



000
FTUS42 KMFL 271734
TAFMIA
TAF
KMIA 271734Z 2718/2818 09016KT P6SM SCT030 BKN040
     FM280600 08008KT P6SM FEW025
     FM281400 08013KT P6SM SCT030 BKN040=



000
FTUS42 KMFL 271734
TAFFLL
TAF
KFLL 271734Z 2718/2818 09016KT P6SM SCT035
     FM280400 09012KT P6SM FEW030
     FM281400 09015KT P6SM SCT030 BKN040=



000
FTUS42 KMFL 271734
TAFPBI
TAF
KPBI 271734Z 2718/2818 10016KT P6SM FEW030 SCT040 SCT250
     FM280300 08011KT P6SM FEW030
     FM281400 08015KT P6SM SCT030 BKN040=



000
FTUS42 KMFL 271734
TAFMIA
TAF
KMIA 271734Z 2718/2818 09016KT P6SM SCT030 BKN040
     FM280600 08008KT P6SM FEW025
     FM281400 08013KT P6SM SCT030 BKN040=



000
FTUS42 KMFL 271734
TAFPBI
TAF
KPBI 271734Z 2718/2818 10016KT P6SM FEW030 SCT040 SCT250
     FM280300 08011KT P6SM FEW030
     FM281400 08015KT P6SM SCT030 BKN040=



000
FTUS42 KMFL 271734
TAFFLL
TAF
KFLL 271734Z 2718/2818 09016KT P6SM SCT035
     FM280400 09012KT P6SM FEW030
     FM281400 09015KT P6SM SCT030 BKN040=



000
FTUS42 KMFL 271734
TAFAPF
TAF
KAPF 271734Z 2718/2818 05011KT P6SM SCT050 SCT060
     FM271900 23008KT P6SM VCSH BKN050
     FM280100 06006KT P6SM FEW100
     FM281400 08011KT P6SM FEW050=



000
FTUS42 KMFL 271459 AAA
TAFFLL
TAF AMD
KFLL 271459Z 2715/2812 10019KT P6SM SCT030
     FM280400 09013KT P6SM FEW030=



000
FTUS42 KMFL 271459 AAA
TAFMIA
TAF AMD
KMIA 271459Z 2715/2812 10016KT P6SM SCT030 BKN040
     FM280600 08010KT P6SM FEW025=



000
FTUS42 KMFL 271459 AAA
TAFMIA
TAF AMD
KMIA 271459Z 2715/2812 10016KT P6SM SCT030 BKN040
     FM280600 08010KT P6SM FEW025=



000
FTUS42 KMFL 271459 AAB
TAFPBI
TAF AMD
KPBI 271459Z 2715/2812 10017KT P6SM FEW030 SCT040 SCT250
     FM280300 08011KT P6SM FEW030=



000
FTUS42 KMFL 271459 AAA
TAFAPF
TAF AMD
KAPF 271459Z 2715/2812 09010KT P6SM FEW040
     FM271900 VRB06KT P6SM SCT040
     FM280300 06006KT P6SM SKC=



000
FTUS42 KMFL 271459 AAA
TAFMIA
TAF AMD
KMIA 271459Z 2715/2812 10016KT P6SM SCT030 BKN040
     FM280600 08010KT P6SM FEW025=



000
FTUS42 KMFL 271459 AAA
TAFFLL
TAF AMD
KFLL 271459Z 2715/2812 10019KT P6SM SCT030
     FM280400 09013KT P6SM FEW030=



000
FTUS42 KMFL 271459 AAA
TAFAPF
TAF AMD
KAPF 271459Z 2715/2812 09010KT P6SM FEW040
     FM271900 VRB06KT P6SM SCT040
     FM280300 06006KT P6SM SKC=



000
FTUS42 KMFL 271459 AAB
TAFPBI
TAF AMD
KPBI 271459Z 2715/2812 10017KT P6SM FEW030 SCT040 SCT250
     FM280300 08011KT P6SM FEW030=



000
FTUS42 KMFL 271459 AAA
TAFAPF
TAF AMD
KAPF 271459Z 2715/2812 09010KT P6SM FEW040
     FM271900 VRB06KT P6SM SCT040
     FM280300 06006KT P6SM SKC=



000
FTUS42 KMFL 271459 AAB
TAFPBI
TAF AMD
KPBI 271459Z 2715/2812 10017KT P6SM FEW030 SCT040 SCT250
     FM280300 08011KT P6SM FEW030=



000
FTUS42 KMFL 271459 AAA
TAFFLL
TAF AMD
KFLL 271459Z 2715/2812 10019KT P6SM SCT030
     FM280400 09013KT P6SM FEW030=



000
FTUS42 KMFL 271459 AAB
TAFPBI
TAF AMD
KPBI 271459Z 2715/2812 10017KT P6SM FEW030 SCT040 SCT250
     FM280300 08011KT P6SM FEW030=



000
FTUS42 KMFL 271459 AAA
TAFAPF
TAF AMD
KAPF 271459Z 2715/2812 09010KT P6SM FEW040
     FM271900 VRB06KT P6SM SCT040
     FM280300 06006KT P6SM SKC=



000
FTUS42 KMFL 271459 AAA
TAFMIA
TAF AMD
KMIA 271459Z 2715/2812 10016KT P6SM SCT030 BKN040
     FM280600 08010KT P6SM FEW025=



000
FTUS42 KMFL 271459 AAA
TAFFLL
TAF AMD
KFLL 271459Z 2715/2812 10019KT P6SM SCT030
     FM280400 09013KT P6SM FEW030=



000
FTUS42 KMFL 271325 AAA
TAFPBI
TAF AMD
KPBI 271325Z 2713/2812 10017KT P6SM SCT030 SCT250
     FM280300 08011KT P6SM FEW030=



000
FTUS42 KMFL 271325 AAA
TAFPBI
TAF AMD
KPBI 271325Z 2713/2812 10017KT P6SM SCT030 SCT250
     FM280300 08011KT P6SM FEW030=



000
FTUS42 KMFL 271325 AAA
TAFPBI
TAF AMD
KPBI 271325Z 2713/2812 10017KT P6SM SCT030 SCT250
     FM280300 08011KT P6SM FEW030=



000
FTUS42 KMFL 271128
TAFPBI
TAF
KPBI 271128Z 2712/2812 08011KT P6SM FEW010 SCT025 SCT250
     FM271400 08016KT P6SM SCT030
     FM280300 08011KT P6SM FEW030=



000
FTUS42 KMFL 271128
TAFPBI
TAF
KPBI 271128Z 2712/2812 08011KT P6SM FEW010 SCT025 SCT250
     FM271400 08016KT P6SM SCT030
     FM280300 08011KT P6SM FEW030=



000
FTUS42 KMFL 271128
TAFFLL
TAF
KFLL 271128Z 2712/2812 10017KT P6SM SCT030
     FM280400 09013KT P6SM FEW030=



000
FTUS42 KMFL 271128
TAFMIA
TAF
KMIA 271128Z 2712/2812 09016KT P6SM SCT025 BKN040
     FM280600 08010KT P6SM FEW025=



000
FTUS42 KMFL 271128
TAFAPF
TAF
KAPF 271128Z 2712/2812 07005KT P6SM SKC
     FM271400 09010G18KT P6SM SCT040
     FM280300 06006KT P6SM SKC=



000
FTUS42 KMFL 271128
TAFAPF
TAF
KAPF 271128Z 2712/2812 07005KT P6SM SKC
     FM271400 09010G18KT P6SM SCT040
     FM280300 06006KT P6SM SKC=



000
FTUS42 KMFL 271128
TAFFLL
TAF
KFLL 271128Z 2712/2812 10017KT P6SM SCT030
     FM280400 09013KT P6SM FEW030=



000
FTUS42 KMFL 271128
TAFMIA
TAF
KMIA 271128Z 2712/2812 09016KT P6SM SCT025 BKN040
     FM280600 08010KT P6SM FEW025=



000
FTUS42 KMFL 270528
TAFFLL
TAF
KFLL 270528Z 2706/2806 08011KT P6SM SCT030
     FM271400 09017G26KT P6SM SCT030
     FM280000 08015KT P6SM FEW030=



000
FTUS42 KMFL 270528
TAFPBI
TAF
KPBI 270528Z 2706/2806 07011KT P6SM FEW030
     FM271400 08015G23KT P6SM SCT030
     FM280000 08015KT P6SM FEW030=



000
FTUS42 KMFL 270528
TAFMIA
TAF
KMIA 270528Z 2706/2806 07008KT P6SM FEW025
     FM271400 09015G23KT P6SM SCT030
     FM280000 08013KT P6SM FEW025=



000
FTUS42 KMFL 270528
TAFAPF
TAF
KAPF 270528Z 2706/2806 05005KT P6SM FEW020
     FM271400 07012G18KT P6SM SCT040
     FM280000 06006KT P6SM FEW020=



000
FTUS42 KMFL 270528
TAFAPF
TAF
KAPF 270528Z 2706/2806 05005KT P6SM FEW020
     FM271400 07012G18KT P6SM SCT040
     FM280000 06006KT P6SM FEW020=



000
FTUS42 KMFL 270528
TAFFLL
TAF
KFLL 270528Z 2706/2806 08011KT P6SM SCT030
     FM271400 09017G26KT P6SM SCT030
     FM280000 08015KT P6SM FEW030=



000
FTUS42 KMFL 270528
TAFFLL
TAF
KFLL 270528Z 2706/2806 08011KT P6SM SCT030
     FM271400 09017G26KT P6SM SCT030
     FM280000 08015KT P6SM FEW030=



000
FTUS42 KMFL 270528
TAFMIA
TAF
KMIA 270528Z 2706/2806 07008KT P6SM FEW025
     FM271400 09015G23KT P6SM SCT030
     FM280000 08013KT P6SM FEW025=



000
FTUS42 KMFL 270528
TAFPBI
TAF
KPBI 270528Z 2706/2806 07011KT P6SM FEW030
     FM271400 08015G23KT P6SM SCT030
     FM280000 08015KT P6SM FEW030=



000
FTUS42 KMFL 270528
TAFPBI
TAF
KPBI 270528Z 2706/2806 07011KT P6SM FEW030
     FM271400 08015G23KT P6SM SCT030
     FM280000 08015KT P6SM FEW030=



000
FTUS42 KMFL 270528
TAFMIA
TAF
KMIA 270528Z 2706/2806 07008KT P6SM FEW025
     FM271400 09015G23KT P6SM SCT030
     FM280000 08013KT P6SM FEW025=



000
FTUS42 KMFL 270528
TAFAPF
TAF
KAPF 270528Z 2706/2806 05005KT P6SM FEW020
     FM271400 07012G18KT P6SM SCT040
     FM280000 06006KT P6SM FEW020=



000
FTUS42 KMFL 270528
TAFFLL
TAF
KFLL 270528Z 2706/2806 08011KT P6SM SCT030
     FM271400 09017G26KT P6SM SCT030
     FM280000 08015KT P6SM FEW030=



000
FTUS42 KMFL 270528
TAFPBI
TAF
KPBI 270528Z 2706/2806 07011KT P6SM FEW030
     FM271400 08015G23KT P6SM SCT030
     FM280000 08015KT P6SM FEW030=



000
FTUS42 KMFL 270528
TAFMIA
TAF
KMIA 270528Z 2706/2806 07008KT P6SM FEW025
     FM271400 09015G23KT P6SM SCT030
     FM280000 08013KT P6SM FEW025=



000
FTUS42 KMFL 270528
TAFAPF
TAF
KAPF 270528Z 2706/2806 05005KT P6SM FEW020
     FM271400 07012G18KT P6SM SCT040
     FM280000 06006KT P6SM FEW020=



000
FTUS42 KMFL 270258 AAA
TAFMIA
TAF AMD
KMIA 270258Z 2703/2724 07011KT P6SM SCT025
     FM271400 09014G20KT P6SM SCT025=



000
FTUS42 KMFL 270258 AAA
TAFAPF
TAF AMD
KAPF 270258Z 2703/2724 05003KT P6SM FEW025 SCT040
     FM271400 07011KT P6SM SCT040=



000
FTUS42 KMFL 270258 AAA
TAFMIA
TAF AMD
KMIA 270258Z 2703/2724 07011KT P6SM SCT025
     FM271400 09014G20KT P6SM SCT025=



000
FTUS42 KMFL 270258 AAA
TAFAPF
TAF AMD
KAPF 270258Z 2703/2724 05003KT P6SM FEW025 SCT040
     FM271400 07011KT P6SM SCT040=



000
FTUS42 KMFL 270258 AAA
TAFPBI
TAF AMD
KPBI 270258Z 2703/2724 09011KT P6SM FEW025 SCT050
     FM271400 09014G20KT P6SM SCT030=



000
FTUS42 KMFL 270258 AAA
TAFFLL
TAF AMD
KFLL 270258Z 2703/2724 10012KT P6SM SCT025
     FM271400 09014G20KT P6SM SCT025=



000
FTUS42 KMFL 270258 AAA
TAFMIA
TAF AMD
KMIA 270258Z 2703/2724 07011KT P6SM SCT025
     FM271400 09014G20KT P6SM SCT025=



000
FTUS42 KMFL 270258 AAA
TAFAPF
TAF AMD
KAPF 270258Z 2703/2724 05003KT P6SM FEW025 SCT040
     FM271400 07011KT P6SM SCT040=



000
FTUS42 KMFL 270258 AAA
TAFFLL
TAF AMD
KFLL 270258Z 2703/2724 10012KT P6SM SCT025
     FM271400 09014G20KT P6SM SCT025=



000
FTUS42 KMFL 270258 AAA
TAFPBI
TAF AMD
KPBI 270258Z 2703/2724 09011KT P6SM FEW025 SCT050
     FM271400 09014G20KT P6SM SCT030=



000
FTUS42 KMFL 262340
TAFPBI
TAF
KPBI 262340Z 2700/2724 11010KT P6SM SCT030 SCT250
     FM271400 09014G20KT P6SM SCT030=



000
FTUS42 KMFL 262340
TAFAPF
TAF
KAPF 262340Z 2700/2724 VRB06KT P6SM VCSH BKN040 BKN060
      TEMPO 2700/2701 SCT040 SCT060
     FM270100 08009KT P6SM SKC
     FM271400 07011KT P6SM SCT040=



000
FTUS42 KMFL 262340
TAFFLL
TAF
KFLL 262340Z 2700/2724 08012KT P6SM FEW025 FEW250
     FM271400 09014G20KT P6SM SCT025=



000
FTUS42 KMFL 262340
TAFMIA
TAF
KMIA 262340Z 2700/2724 08011KT P6SM SCT025 SCT250
     FM271400 09014G20KT P6SM SCT025=



000
FTUS42 KMFL 262340
TAFPBI
TAF
KPBI 262340Z 2700/2724 11010KT P6SM SCT030 SCT250
     FM271400 09014G20KT P6SM SCT030=



000
FTUS42 KMFL 262340
TAFMIA
TAF
KMIA 262340Z 2700/2724 08011KT P6SM SCT025 SCT250
     FM271400 09014G20KT P6SM SCT025=



000
FTUS42 KMFL 262340
TAFFLL
TAF
KFLL 262340Z 2700/2724 08012KT P6SM FEW025 FEW250
     FM271400 09014G20KT P6SM SCT025=



000
FTUS42 KMFL 262340
TAFAPF
TAF
KAPF 262340Z 2700/2724 VRB06KT P6SM VCSH BKN040 BKN060
      TEMPO 2700/2701 SCT040 SCT060
     FM270100 08009KT P6SM SKC
     FM271400 07011KT P6SM SCT040=



000
FTUS42 KMFL 262303 AAB
TAFAPF
TAF AMD
KAPF 262303Z 2623/2718 14010KT P6SM VCSH SCT025 BKN045 BKN060
      TEMPO 2623/2624 2SM +SHRA
     FM270100 08009KT P6SM SKC
     FM271400 10010KT P6SM SCT040=



000
FTUS42 KMFL 262303 AAB
TAFAPF
TAF AMD
KAPF 262303Z 2623/2718 14010KT P6SM VCSH SCT025 BKN045 BKN060
      TEMPO 2623/2624 2SM +SHRA
     FM270100 08009KT P6SM SKC
     FM271400 10010KT P6SM SCT040=



000
FTUS42 KMFL 262303 AAB
TAFAPF
TAF AMD
KAPF 262303Z 2623/2718 14010KT P6SM VCSH SCT025 BKN045 BKN060
      TEMPO 2623/2624 2SM +SHRA
     FM270100 08009KT P6SM SKC
     FM271400 10010KT P6SM SCT040=



000
FTUS42 KMFL 262303 AAB
TAFAPF
TAF AMD
KAPF 262303Z 2623/2718 14010KT P6SM VCSH SCT025 BKN045 BKN060
      TEMPO 2623/2624 2SM +SHRA
     FM270100 08009KT P6SM SKC
     FM271400 10010KT P6SM SCT040=



000
FTUS42 KMFL 262113 AAA
TAFAPF
TAF AMD
KAPF 262113Z 2621/2718 20012KT P6SM VCSH BKN050 BKN070
     FM270100 08009KT P6SM SKC
     FM271400 10010KT P6SM SCT040=



000
FTUS42 KMFL 262113 AAA
TAFMIA
TAF AMD
KMIA 262113Z 2621/2718 11015KT P6SM SCT025 SCT250
     FM270300 09010KT P6SM SCT025
     FM271400 09014KT P6SM SCT025 BKN040=



000
FTUS42 KMFL 262113 AAA
TAFFLL
TAF AMD
KFLL 262113Z 2621/2718 11013G18KT P6SM FEW025 BKN250
     FM270300 09014KT P6SM SCT025=



000
FTUS42 KMFL 262113 AAA
TAFPBI
TAF AMD
KPBI 262113Z 2621/2718 10012KT P6SM FEW025 SCT250
     FM270300 09013KT P6SM SCT025=



000
FTUS42 KMFL 262113 AAA
TAFFLL
TAF AMD
KFLL 262113Z 2621/2718 11013G18KT P6SM FEW025 BKN250
     FM270300 09014KT P6SM SCT025=



000
FTUS42 KMFL 262113 AAA
TAFAPF
TAF AMD
KAPF 262113Z 2621/2718 20012KT P6SM VCSH BKN050 BKN070
     FM270100 08009KT P6SM SKC
     FM271400 10010KT P6SM SCT040=



000
FTUS42 KMFL 262113 AAA
TAFMIA
TAF AMD
KMIA 262113Z 2621/2718 11015KT P6SM SCT025 SCT250
     FM270300 09010KT P6SM SCT025
     FM271400 09014KT P6SM SCT025 BKN040=



000
FTUS42 KMFL 262113 AAA
TAFPBI
TAF AMD
KPBI 262113Z 2621/2718 10012KT P6SM FEW025 SCT250
     FM270300 09013KT P6SM SCT025=



000
FTUS42 KMFL 262113 AAA
TAFAPF
TAF AMD
KAPF 262113Z 2621/2718 20012KT P6SM VCSH BKN050 BKN070
     FM270100 08009KT P6SM SKC
     FM271400 10010KT P6SM SCT040=



000
FTUS42 KMFL 262113 AAA
TAFFLL
TAF AMD
KFLL 262113Z 2621/2718 11013G18KT P6SM FEW025 BKN250
     FM270300 09014KT P6SM SCT025=



000
FTUS42 KMFL 262113 AAA
TAFMIA
TAF AMD
KMIA 262113Z 2621/2718 11015KT P6SM SCT025 SCT250
     FM270300 09010KT P6SM SCT025
     FM271400 09014KT P6SM SCT025 BKN040=



000
FTUS42 KMFL 262113 AAA
TAFPBI
TAF AMD
KPBI 262113Z 2621/2718 10012KT P6SM FEW025 SCT250
     FM270300 09013KT P6SM SCT025=



000
FTUS42 KMFL 262113 AAA
TAFPBI
TAF AMD
KPBI 262113Z 2621/2718 10012KT P6SM FEW025 SCT250
     FM270300 09013KT P6SM SCT025=



000
FTUS42 KMFL 262113 AAA
TAFAPF
TAF AMD
KAPF 262113Z 2621/2718 20012KT P6SM VCSH BKN050 BKN070
     FM270100 08009KT P6SM SKC
     FM271400 10010KT P6SM SCT040=



000
FTUS42 KMFL 262113 AAA
TAFMIA
TAF AMD
KMIA 262113Z 2621/2718 11015KT P6SM SCT025 SCT250
     FM270300 09010KT P6SM SCT025
     FM271400 09014KT P6SM SCT025 BKN040=



000
FTUS42 KMFL 262113 AAA
TAFFLL
TAF AMD
KFLL 262113Z 2621/2718 11013G18KT P6SM FEW025 BKN250
     FM270300 09014KT P6SM SCT025=



000
FTUS42 KMFL 261728
TAFFLL
TAF
KFLL 261728Z 2618/2718 11018KT P6SM VCSH SCT030 BKN040
     FM262000 10018KT P6SM SCT030
     FM270300 09014KT P6SM SCT025=



000
FTUS42 KMFL 261728
TAFMIA
TAF
KMIA 261728Z 2618/2718 11015KT P6SM SCT025 BKN040
      TEMPO 2618/2619 -SHRA BKN030
     FM270300 09010KT P6SM SCT025
     FM271400 09014KT P6SM SCT025 BKN040=



000
FTUS42 KMFL 261728
TAFPBI
TAF
KPBI 261728Z 2618/2718 11016KT P6SM SCT025 SCT250
     FM270300 09013KT P6SM SCT025=



000
FTUS42 KMFL 261728
TAFAPF
TAF
KAPF 261728Z 2618/2718 15011KT P6SM VCTS SCT045CB BKN060
     FM270100 08009KT P6SM SKC
     FM271400 10010KT P6SM SCT040=



000
FTUS42 KMFL 261728
TAFPBI
TAF
KPBI 261728Z 2618/2718 11016KT P6SM SCT025 SCT250
     FM270300 09013KT P6SM SCT025=



000
FTUS42 KMFL 261728
TAFAPF
TAF
KAPF 261728Z 2618/2718 15011KT P6SM VCTS SCT045CB BKN060
     FM270100 08009KT P6SM SKC
     FM271400 10010KT P6SM SCT040=



000
FTUS42 KMFL 261728
TAFMIA
TAF
KMIA 261728Z 2618/2718 11015KT P6SM SCT025 BKN040
      TEMPO 2618/2619 -SHRA BKN030
     FM270300 09010KT P6SM SCT025
     FM271400 09014KT P6SM SCT025 BKN040=



000
FTUS42 KMFL 261728
TAFFLL
TAF
KFLL 261728Z 2618/2718 11018KT P6SM VCSH SCT030 BKN040
     FM262000 10018KT P6SM SCT030
     FM270300 09014KT P6SM SCT025=



000
FTUS42 KMFL 261638 AAB
TAFFLL
TAF AMD
KFLL 261638Z 2617/2712 11015KT P6SM VCSH BKN030 BKN050
     FM261800 11015G25KT P6SM SCT025 BKN040
     FM270300 09014KT P6SM SCT025=



000
FTUS42 KMFL 261638 AAB
TAFMIA
TAF AMD
KMIA 261638Z 2617/2712 10015KT P6SM VCSH BKN030 BKN300
     FM261800 11013G23KT P6SM SCT025 BKN040
     FM270300 09010KT P6SM SCT025=



000
FTUS42 KMFL 261638 AAB
TAFMIA
TAF AMD
KMIA 261638Z 2617/2712 10015KT P6SM VCSH BKN030 BKN300
     FM261800 11013G23KT P6SM SCT025 BKN040
     FM270300 09010KT P6SM SCT025=



000
FTUS42 KMFL 261638 AAB
TAFMIA
TAF AMD
KMIA 261638Z 2617/2712 10015KT P6SM VCSH BKN030 BKN300
     FM261800 11013G23KT P6SM SCT025 BKN040
     FM270300 09010KT P6SM SCT025=



000
FTUS42 KMFL 261638 AAB
TAFFLL
TAF AMD
KFLL 261638Z 2617/2712 11015KT P6SM VCSH BKN030 BKN050
     FM261800 11015G25KT P6SM SCT025 BKN040
     FM270300 09014KT P6SM SCT025=



000
FTUS42 KMFL 261638 AAB
TAFFLL
TAF AMD
KFLL 261638Z 2617/2712 11015KT P6SM VCSH BKN030 BKN050
     FM261800 11015G25KT P6SM SCT025 BKN040
     FM270300 09014KT P6SM SCT025=



000
FTUS42 KMFL 261512 AAA
TAFAPF
TAF AMD
KAPF 261512Z 2615/2712 11011KT P6SM BKN035
      TEMPO 2615/2616 BKN030
     FM261800 14011KT P6SM VCTS SCT040CB BKN050
     FM270000 08009KT P6SM SCT030=



000
FTUS42 KMFL 261512 AAA
TAFPBI
TAF AMD
KPBI 261512Z 2615/2712 10014KT P6SM SCT025 SCT060 SCT250
     FM261800 11015G25KT P6SM SCT025 BKN040
     FM270300 09013KT P6SM SCT025=



000
FTUS42 KMFL 261512 AAA
TAFFLL
TAF AMD
KFLL 261512Z 2615/2712 11015KT P6SM VCSH SCT025 BKN050
      TEMPO 2615/2616 BKN025
     FM261800 11015G25KT P6SM SCT025 BKN040
     FM270300 09014KT P6SM SCT025=



000
FTUS42 KMFL 261512 AAA
TAFMIA
TAF AMD
KMIA 261512Z 2615/2712 10012KT P6SM VCSH SCT025 BKN040 BKN250
      TEMPO 2615/2616 BKN030
     FM261600 11013G23KT P6SM SCT025 BKN040
     FM270300 09010KT P6SM SCT025=



000
FTUS42 KMFL 261512 AAA
TAFMIA
TAF AMD
KMIA 261512Z 2615/2712 10012KT P6SM VCSH SCT025 BKN040 BKN250
      TEMPO 2615/2616 BKN030
     FM261600 11013G23KT P6SM SCT025 BKN040
     FM270300 09010KT P6SM SCT025=



000
FTUS42 KMFL 261512 AAA
TAFPBI
TAF AMD
KPBI 261512Z 2615/2712 10014KT P6SM SCT025 SCT060 SCT250
     FM261800 11015G25KT P6SM SCT025 BKN040
     FM270300 09013KT P6SM SCT025=



000
FTUS42 KMFL 261512 AAA
TAFFLL
TAF AMD
KFLL 261512Z 2615/2712 11015KT P6SM VCSH SCT025 BKN050
      TEMPO 2615/2616 BKN025
     FM261800 11015G25KT P6SM SCT025 BKN040
     FM270300 09014KT P6SM SCT025=



000
FTUS42 KMFL 261512 AAA
TAFAPF
TAF AMD
KAPF 261512Z 2615/2712 11011KT P6SM BKN035
      TEMPO 2615/2616 BKN030
     FM261800 14011KT P6SM VCTS SCT040CB BKN050
     FM270000 08009KT P6SM SCT030=



000
FTUS42 KMFL 261135
TAFMIA
TAF
KMIA 261135Z 2612/2712 10012KT P6SM VCSH SCT025 BKN040 BKN250
     FM261600 11013G23KT P6SM SCT025 BKN040
     FM270300 09010KT P6SM SCT025=



000
FTUS42 KMFL 261135
TAFPBI
TAF
KPBI 261135Z 2612/2712 11014KT P6SM VCSH SCT025 BKN040
     FM261600 11015G25KT P6SM SCT025 BKN040
     FM270300 09013KT P6SM SCT025=



000
FTUS42 KMFL 261135
TAFFLL
TAF
KFLL 261135Z 2612/2712 11015KT P6SM VCSH SCT025 BKN050
     FM261600 11015G25KT P6SM SCT025 BKN040
     FM270300 09014KT P6SM SCT025=



000
FTUS42 KMFL 261135
TAFFLL
TAF
KFLL 261135Z 2612/2712 11015KT P6SM VCSH SCT025 BKN050
     FM261600 11015G25KT P6SM SCT025 BKN040
     FM270300 09014KT P6SM SCT025=



000
FTUS42 KMFL 261135
TAFAPF
TAF
KAPF 261135Z 2612/2712 09008KT P6SM SKC
     FM261400 11012KT P6SM SCT030
     FM261800 12011KT P6SM VCTS SCT040CB BKN050
     FM270000 08009KT P6SM SCT030=



000
FTUS42 KMFL 261135
TAFPBI
TAF
KPBI 261135Z 2612/2712 11014KT P6SM VCSH SCT025 BKN040
     FM261600 11015G25KT P6SM SCT025 BKN040
     FM270300 09013KT P6SM SCT025=



000
FTUS42 KMFL 261135
TAFMIA
TAF
KMIA 261135Z 2612/2712 10012KT P6SM VCSH SCT025 BKN040 BKN250
     FM261600 11013G23KT P6SM SCT025 BKN040
     FM270300 09010KT P6SM SCT025=



000
FTUS42 KMFL 261135
TAFAPF
TAF
KAPF 261135Z 2612/2712 09008KT P6SM SKC
     FM261400 11012KT P6SM SCT030
     FM261800 12011KT P6SM VCTS SCT040CB BKN050
     FM270000 08009KT P6SM SCT030=



000
FTUS42 KMFL 260904 AAA
TAFFLL
TAF AMD
KFLL 260904Z 2609/2706 11015KT P6SM VCSH FEW022 SCT026 BKN050
      TEMPO 2609/2611 BKN025
     FM261600 11012G22KT P6SM SCT025 BKN040=



000
FTUS42 KMFL 260904 AAA
TAFMIA
TAF AMD
KMIA 260904Z 2609/2706 10012G19KT P6SM VCSH FEW024 SCT250
     FM261600 11015G25KT P6SM SCT025 BKN040=



000
FTUS42 KMFL 260904 AAA
TAFPBI
TAF AMD
KPBI 260904Z 2609/2706 11014KT P6SM VCSH SCT023
      TEMPO 2609/2611 BKN025
     FM261600 11015G25KT P6SM SCT025 BKN040=



000
FTUS42 KMFL 260904 AAA
TAFAPF
TAF AMD
KAPF 260904Z 2609/2706 09008KT P6SM SKC
     FM261400 13012KT P6SM SCT030
     FM261800 12011KT P6SM VCTS SCT040CB
     FM270000 08011KT P6SM SCT030=



000
FTUS42 KMFL 260904 AAA
TAFPBI
TAF AMD
KPBI 260904Z 2609/2706 11014KT P6SM VCSH SCT023
      TEMPO 2609/2611 BKN025
     FM261600 11015G25KT P6SM SCT025 BKN040=



000
FTUS42 KMFL 260904 AAA
TAFMIA
TAF AMD
KMIA 260904Z 2609/2706 10012G19KT P6SM VCSH FEW024 SCT250
     FM261600 11015G25KT P6SM SCT025 BKN040=



000
FTUS42 KMFL 260904 AAA
TAFAPF
TAF AMD
KAPF 260904Z 2609/2706 09008KT P6SM SKC
     FM261400 13012KT P6SM SCT030
     FM261800 12011KT P6SM VCTS SCT040CB
     FM270000 08011KT P6SM SCT030=



000
FTUS42 KMFL 260904 AAA
TAFFLL
TAF AMD
KFLL 260904Z 2609/2706 11015KT P6SM VCSH FEW022 SCT026 BKN050
      TEMPO 2609/2611 BKN025
     FM261600 11012G22KT P6SM SCT025 BKN040=



000
FTUS42 KMFL 260540
TAFFLL
TAF
KFLL 260540Z 2606/2706 11015KT P6SM VCSH SCT030 BKN250
     FM261600 11012G22KT P6SM SCT025 BKN040=



000
FTUS42 KMFL 260540
TAFAPF
TAF
KAPF 260540Z 2606/2706 08006KT P6SM SKC
     FM261400 13012KT P6SM SCT030
     FM261800 12011KT P6SM VCTS SCT030CB=



000
FTUS42 KMFL 260540
TAFPBI
TAF
KPBI 260540Z 2606/2706 07007KT P6SM VCSH SCT025 BKN030
      TEMPO 2609/2611 BKN025
     FM261600 11015G25KT P6SM SCT025 BKN040=



000
FTUS42 KMFL 260540
TAFFLL
TAF
KFLL 260540Z 2606/2706 11015KT P6SM VCSH SCT030 BKN250
     FM261600 11012G22KT P6SM SCT025 BKN040=



000
FTUS42 KMFL 260540
TAFAPF
TAF
KAPF 260540Z 2606/2706 08006KT P6SM SKC
     FM261400 13012KT P6SM SCT030
     FM261800 12011KT P6SM VCTS SCT030CB=



000
FTUS42 KMFL 260540
TAFPBI
TAF
KPBI 260540Z 2606/2706 07007KT P6SM VCSH SCT025 BKN030
      TEMPO 2609/2611 BKN025
     FM261600 11015G25KT P6SM SCT025 BKN040=



000
FTUS42 KMFL 260540
TAFMIA
TAF
KMIA 260540Z 2606/2706 13012KT P6SM VCSH FEW023 SCT030
     FM261600 11015G25KT P6SM SCT025 BKN040=



000
FTUS42 KMFL 260540
TAFMIA
TAF
KMIA 260540Z 2606/2706 13012KT P6SM VCSH FEW023 SCT030
     FM261600 11015G25KT P6SM SCT025 BKN040=



000
FTUS42 KMFL 260307 AAA
TAFPBI
TAF AMD
KPBI 260307Z 2603/2624 13011KT P6SM VCSH SCT019 BKN030 BKN250
      TEMPO 2603/2605 BKN025
     FM260600 10013KT P6SM BKN050
     FM261600 11015G25KT P6SM SCT025 BKN040=



000
FTUS42 KMFL 260307 AAA
TAFAPF
TAF AMD
KAPF 260307Z 2603/2624 11006KT P6SM SCT030
     FM261400 13012G22KT P6SM SCT030=



000
FTUS42 KMFL 260307 AAA
TAFMIA
TAF AMD
KMIA 260307Z 2603/2624 10011KT P6SM SCT030
     FM261600 11015G25KT P6SM SCT025 BKN040=



000
FTUS42 KMFL 260307 AAA
TAFFLL
TAF AMD
KFLL 260307Z 2603/2624 11014KT P6SM VCSH SCT030
     FM261600 11012G22KT P6SM SCT025 BKN040=



000
FTUS42 KMFL 260307 AAA
TAFFLL
TAF AMD
KFLL 260307Z 2603/2624 11014KT P6SM VCSH SCT030
     FM261600 11012G22KT P6SM SCT025 BKN040=



000
FTUS42 KMFL 260307 AAA
TAFAPF
TAF AMD
KAPF 260307Z 2603/2624 11006KT P6SM SCT030
     FM261400 13012G22KT P6SM SCT030=



000
FTUS42 KMFL 260307 AAA
TAFMIA
TAF AMD
KMIA 260307Z 2603/2624 10011KT P6SM SCT030
     FM261600 11015G25KT P6SM SCT025 BKN040=



000
FTUS42 KMFL 260307 AAA
TAFPBI
TAF AMD
KPBI 260307Z 2603/2624 13011KT P6SM VCSH SCT019 BKN030 BKN250
      TEMPO 2603/2605 BKN025
     FM260600 10013KT P6SM BKN050
     FM261600 11015G25KT P6SM SCT025 BKN040=



000
FTUS42 KMFL 260307 AAA
TAFMIA
TAF AMD
KMIA 260307Z 2603/2624 10011KT P6SM SCT030
     FM261600 11015G25KT P6SM SCT025 BKN040=



000
FTUS42 KMFL 260307 AAA
TAFPBI
TAF AMD
KPBI 260307Z 2603/2624 13011KT P6SM VCSH SCT019 BKN030 BKN250
      TEMPO 2603/2605 BKN025
     FM260600 10013KT P6SM BKN050
     FM261600 11015G25KT P6SM SCT025 BKN040=



000
FTUS42 KMFL 260307 AAA
TAFFLL
TAF AMD
KFLL 260307Z 2603/2624 11014KT P6SM VCSH SCT030
     FM261600 11012G22KT P6SM SCT025 BKN040=



000
FTUS42 KMFL 252338
TAFMIA
TAF
KMIA 252338Z 2600/2624 10012KT P6SM SCT025 SCT250
     FM260300 10010KT P6SM VCSH FEW025 SCT250
     FM261600 11015G25KT P6SM SCT025 BKN040=



000
FTUS42 KMFL 252338
TAFFLL
TAF
KFLL 252338Z 2600/2624 10012KT P6SM SCT025 SCT250
     FM260300 10012KT P6SM VCSH FEW025 SCT250
     FM261600 11012G22KT P6SM SCT025 BKN040=



000
FTUS42 KMFL 252338
TAFPBI
TAF
KPBI 252338Z 2600/2624 13012KT P6SM SCT025 SCT250
     FM260300 10012KT P6SM VCSH FEW025 SCT250
     FM261600 11015G25KT P6SM SCT025 BKN040=



000
FTUS42 KMFL 252338
TAFAPF
TAF
KAPF 252338Z 2600/2624 VRB06KT P6SM VCSH FEW020 BKN050
     FM260100 08008KT P6SM SKC
     FM261400 13012G22KT P6SM SCT030=



000
FTUS42 KMFL 252338
TAFMIA
TAF
KMIA 252338Z 2600/2624 10012KT P6SM SCT025 SCT250
     FM260300 10010KT P6SM VCSH FEW025 SCT250
     FM261600 11015G25KT P6SM SCT025 BKN040=



000
FTUS42 KMFL 252338
TAFAPF
TAF
KAPF 252338Z 2600/2624 VRB06KT P6SM VCSH FEW020 BKN050
     FM260100 08008KT P6SM SKC
     FM261400 13012G22KT P6SM SCT030=



000
FTUS42 KMFL 252338
TAFPBI
TAF
KPBI 252338Z 2600/2624 13012KT P6SM SCT025 SCT250
     FM260300 10012KT P6SM VCSH FEW025 SCT250
     FM261600 11015G25KT P6SM SCT025 BKN040=



000
FTUS42 KMFL 252338
TAFFLL
TAF
KFLL 252338Z 2600/2624 10012KT P6SM SCT025 SCT250
     FM260300 10012KT P6SM VCSH FEW025 SCT250
     FM261600 11012G22KT P6SM SCT025 BKN040=



000
FTUS42 KMFL 252338
TAFMIA
TAF
KMIA 252338Z 2600/2624 10012KT P6SM SCT025 SCT250
     FM260300 10010KT P6SM VCSH FEW025 SCT250
     FM261600 11015G25KT P6SM SCT025 BKN040=



000
FTUS42 KMFL 252338
TAFAPF
TAF
KAPF 252338Z 2600/2624 VRB06KT P6SM VCSH FEW020 BKN050
     FM260100 08008KT P6SM SKC
     FM261400 13012G22KT P6SM SCT030=



000
FTUS42 KMFL 252338
TAFPBI
TAF
KPBI 252338Z 2600/2624 13012KT P6SM SCT025 SCT250
     FM260300 10012KT P6SM VCSH FEW025 SCT250
     FM261600 11015G25KT P6SM SCT025 BKN040=



000
FTUS42 KMFL 252338
TAFFLL
TAF
KFLL 252338Z 2600/2624 10012KT P6SM SCT025 SCT250
     FM260300 10012KT P6SM VCSH FEW025 SCT250
     FM261600 11012G22KT P6SM SCT025 BKN040=



000
FTUS42 KMFL 252338
TAFPBI
TAF
KPBI 252338Z 2600/2624 13012KT P6SM SCT025 SCT250
     FM260300 10012KT P6SM VCSH FEW025 SCT250
     FM261600 11015G25KT P6SM SCT025 BKN040=



000
FTUS42 KMFL 252338
TAFMIA
TAF
KMIA 252338Z 2600/2624 10012KT P6SM SCT025 SCT250
     FM260300 10010KT P6SM VCSH FEW025 SCT250
     FM261600 11015G25KT P6SM SCT025 BKN040=



000
FTUS42 KMFL 252338
TAFAPF
TAF
KAPF 252338Z 2600/2624 VRB06KT P6SM VCSH FEW020 BKN050
     FM260100 08008KT P6SM SKC
     FM261400 13012G22KT P6SM SCT030=



000
FTUS42 KMFL 252338
TAFFLL
TAF
KFLL 252338Z 2600/2624 10012KT P6SM SCT025 SCT250
     FM260300 10012KT P6SM VCSH FEW025 SCT250
     FM261600 11012G22KT P6SM SCT025 BKN040=



000
FTUS42 KMFL 252106 AAA
TAFAPF
TAF AMD
KAPF 252106Z 2521/2618 VRB06KT P6SM VCSH FEW020 BKN070
     FM260100 09008KT P6SM SKC
     FM261400 11012G18KT P6SM SCT030=



000
FTUS42 KMFL 252106 AAA
TAFAPF
TAF AMD
KAPF 252106Z 2521/2618 VRB06KT P6SM VCSH FEW020 BKN070
     FM260100 09008KT P6SM SKC
     FM261400 11012G18KT P6SM SCT030=



000
FTUS42 KMFL 252105 AAA
TAFMIA
TAF AMD
KMIA 252105Z 2521/2618 10012KT P6SM SCT020 BKN250
     FM260100 10011KT P6SM FEW020 SCT040
     FM261500 10015G22KT P6SM SCT025 BKN040=



000
FTUS42 KMFL 252105 AAA
TAFMIA
TAF AMD
KMIA 252105Z 2521/2618 10012KT P6SM SCT020 BKN250
     FM260100 10011KT P6SM FEW020 SCT040
     FM261500 10015G22KT P6SM SCT025 BKN040=



000
FTUS42 KMFL 252104 AAA
TAFFLL
TAF AMD
KFLL 252104Z 2521/2618 10012KT P6SM FEW020 BKN060
     FM260000 10014KT P6SM FEW020 SCT040
     FM261500 11017G24KT P6SM SCT025 BKN040=



000
FTUS42 KMFL 252104 AAA
TAFFLL
TAF AMD
KFLL 252104Z 2521/2618 10012KT P6SM FEW020 BKN060
     FM260000 10014KT P6SM FEW020 SCT040
     FM261500 11017G24KT P6SM SCT025 BKN040=



000
FTUS42 KMFL 252103 AAA
TAFPBI
TAF AMD
KPBI 252103Z 2521/2618 12015KT P6SM SCT025 BKN040 BKN250
     FM260000 10013KT P6SM FEW025 SCT040
     FM261600 11017G24KT P6SM SCT025 BKN040=



000
FTUS42 KMFL 252103 AAA
TAFPBI
TAF AMD
KPBI 252103Z 2521/2618 12015KT P6SM SCT025 BKN040 BKN250
     FM260000 10013KT P6SM FEW025 SCT040
     FM261600 11017G24KT P6SM SCT025 BKN040=



000
FTUS42 KMFL 251737
TAFPBI
TAF
KPBI 251737Z 2518/2618 12018G25KT P6SM SCT025 BKN040 BKN250
      TEMPO 2518/2520 BKN025
     FM260000 10013KT P6SM FEW025 SCT040
     FM261600 11017G24KT P6SM SCT025 BKN040=



000
FTUS42 KMFL 251737
TAFMIA
TAF
KMIA 251737Z 2518/2618 11017G25KT P6SM SCT020 BKN040
     FM260100 10011KT P6SM FEW020 SCT040
     FM261500 10015G22KT P6SM SCT025 BKN040=



000
FTUS42 KMFL 251737
TAFAPF
TAF
KAPF 251737Z 2518/2618 14010G18KT P6SM VCTS SCT030CB BKN050
      TEMPO 2520/2522 6SM SHRA BKN035
     FM260100 09008KT P6SM SKC
     FM261400 11012G18KT P6SM SCT030=



000
FTUS42 KMFL 251737
TAFFLL
TAF
KFLL 251737Z 2518/2618 11018G25KT P6SM FEW020 BKN040
     FM260000 10014KT P6SM FEW020 SCT040
     FM261500 11017G24KT P6SM SCT025 BKN040=



000
FTUS42 KMFL 251737
TAFPBI
TAF
KPBI 251737Z 2518/2618 12018G25KT P6SM SCT025 BKN040 BKN250
      TEMPO 2518/2520 BKN025
     FM260000 10013KT P6SM FEW025 SCT040
     FM261600 11017G24KT P6SM SCT025 BKN040=



000
FTUS42 KMFL 251737
TAFFLL
TAF
KFLL 251737Z 2518/2618 11018G25KT P6SM FEW020 BKN040
     FM260000 10014KT P6SM FEW020 SCT040
     FM261500 11017G24KT P6SM SCT025 BKN040=



000
FTUS42 KMFL 251737
TAFAPF
TAF
KAPF 251737Z 2518/2618 14010G18KT P6SM VCTS SCT030CB BKN050
      TEMPO 2520/2522 6SM SHRA BKN035
     FM260100 09008KT P6SM SKC
     FM261400 11012G18KT P6SM SCT030=



000
FTUS42 KMFL 251737
TAFMIA
TAF
KMIA 251737Z 2518/2618 11017G25KT P6SM SCT020 BKN040
     FM260100 10011KT P6SM FEW020 SCT040
     FM261500 10015G22KT P6SM SCT025 BKN040=



000
FTUS42 KMFL 251737
TAFMIA
TAF
KMIA 251737Z 2518/2618 11017G25KT P6SM SCT020 BKN040
     FM260100 10011KT P6SM FEW020 SCT040
     FM261500 10015G22KT P6SM SCT025 BKN040=



000
FTUS42 KMFL 251737
TAFFLL
TAF
KFLL 251737Z 2518/2618 11018G25KT P6SM FEW020 BKN040
     FM260000 10014KT P6SM FEW020 SCT040
     FM261500 11017G24KT P6SM SCT025 BKN040=



000
FTUS42 KMFL 251737
TAFPBI
TAF
KPBI 251737Z 2518/2618 12018G25KT P6SM SCT025 BKN040 BKN250
      TEMPO 2518/2520 BKN025
     FM260000 10013KT P6SM FEW025 SCT040
     FM261600 11017G24KT P6SM SCT025 BKN040=



000
FTUS42 KMFL 251737
TAFAPF
TAF
KAPF 251737Z 2518/2618 14010G18KT P6SM VCTS SCT030CB BKN050
      TEMPO 2520/2522 6SM SHRA BKN035
     FM260100 09008KT P6SM SKC
     FM261400 11012G18KT P6SM SCT030=



000
FTUS42 KMFL 251559 AAB
TAFMIA
TAF AMD
KMIA 251559Z 2516/2612 10014KT P6SM VCSH SCT025 BKN040
      TEMPO 2516/2518 BKN025
     FM251800 11017G25KT P6SM SCT020 BKN040
     FM260100 10011KT P6SM FEW020 SCT040=



000
FTUS42 KMFL 251559 AAB
TAFMIA
TAF AMD
KMIA 251559Z 2516/2612 10014KT P6SM VCSH SCT025 BKN040
      TEMPO 2516/2518 BKN025
     FM251800 11017G25KT P6SM SCT020 BKN040
     FM260100 10011KT P6SM FEW020 SCT040=



000
FTUS42 KMFL 251505 AAA
TAFAPF
TAF AMD
KAPF 251505Z 2515/2612 10013G19KT P6SM FEW030 SCT035
     FM251900 15015KT P6SM VCTS SCT030CB BKN050
      TEMPO 2520/2522 6SM SHRA BKN035
     FM260000 09008KT P6SM FEW025=



000
FTUS42 KMFL 251505 AAA
TAFMIA
TAF AMD
KMIA 251505Z 2515/2612 10014KT P6SM VCSH SCT025 BKN040
     FM251800 11017G25KT P6SM SCT020 BKN040
     FM260100 10011KT P6SM FEW020 SCT040=



000
FTUS42 KMFL 251505 AAA
TAFPBI
TAF AMD
KPBI 251505Z 2515/2612 11013KT P6SM SCT020 BKN040
      TEMPO 2515/2517 BKN020
     FM251800 11018G26KT P6SM FEW025 BKN040
     FM260000 10013KT P6SM FEW025 SCT040=



000
FTUS42 KMFL 251505 AAA
TAFPBI
TAF AMD
KPBI 251505Z 2515/2612 11013KT P6SM SCT020 BKN040
      TEMPO 2515/2517 BKN020
     FM251800 11018G26KT P6SM FEW025 BKN040
     FM260000 10013KT P6SM FEW025 SCT040=



000
FTUS42 KMFL 251505 AAA
TAFFLL
TAF AMD
KFLL 251505Z 2515/2612 10015KT P6SM VCSH SCT020 SCT030 SCT050
     FM251800 11018G25KT P6SM FEW020 BKN040
     FM260000 10014KT P6SM FEW020 SCT040=



000
FTUS42 KMFL 251505 AAA
TAFAPF
TAF AMD
KAPF 251505Z 2515/2612 10013G19KT P6SM FEW030 SCT035
     FM251900 15015KT P6SM VCTS SCT030CB BKN050
      TEMPO 2520/2522 6SM SHRA BKN035
     FM260000 09008KT P6SM FEW025=



000
FTUS42 KMFL 251505 AAA
TAFMIA
TAF AMD
KMIA 251505Z 2515/2612 10014KT P6SM VCSH SCT025 BKN040
     FM251800 11017G25KT P6SM SCT020 BKN040
     FM260100 10011KT P6SM FEW020 SCT040=



000
FTUS42 KMFL 251505 AAA
TAFMIA
TAF AMD
KMIA 251505Z 2515/2612 10014KT P6SM VCSH SCT025 BKN040
     FM251800 11017G25KT P6SM SCT020 BKN040
     FM260100 10011KT P6SM FEW020 SCT040=



000
FTUS42 KMFL 251505 AAA
TAFFLL
TAF AMD
KFLL 251505Z 2515/2612 10015KT P6SM VCSH SCT020 SCT030 SCT050
     FM251800 11018G25KT P6SM FEW020 BKN040
     FM260000 10014KT P6SM FEW020 SCT040=



000
FTUS42 KMFL 251505 AAA
TAFFLL
TAF AMD
KFLL 251505Z 2515/2612 10015KT P6SM VCSH SCT020 SCT030 SCT050
     FM251800 11018G25KT P6SM FEW020 BKN040
     FM260000 10014KT P6SM FEW020 SCT040=



000
FTUS42 KMFL 251505 AAA
TAFAPF
TAF AMD
KAPF 251505Z 2515/2612 10013G19KT P6SM FEW030 SCT035
     FM251900 15015KT P6SM VCTS SCT030CB BKN050
      TEMPO 2520/2522 6SM SHRA BKN035
     FM260000 09008KT P6SM FEW025=



000
FTUS42 KMFL 251132
TAFAPF
TAF
KAPF 251132Z 2512/2612 06007KT P6SM SKC
     FM251400 10012G18KT P6SM SCT025
     FM251900 15015KT P6SM VCTS SCT025CB BKN050
      TEMPO 2520/2522 6SM SHRA BKN035
     FM260000 09008KT P6SM FEW025=



000
FTUS42 KMFL 251132
TAFPBI
TAF
KPBI 251132Z 2512/2612 11013KT P6SM VCSH FEW020 SCT050 SCT250
     FM251600 11018G26KT P6SM FEW025 SCT040
     FM260000 10013KT P6SM FEW025 SCT040=



000
FTUS42 KMFL 251132
TAFFLL
TAF
KFLL 251132Z 2512/2612 10015KT P6SM VCSH SCT020 SCT030 SCT050
     FM251600 11018G26KT P6SM FEW020 SCT040
     FM260000 10014KT P6SM FEW020 SCT040=



000
FTUS42 KMFL 251132
TAFMIA
TAF
KMIA 251132Z 2512/2612 10012KT P6SM SCT025 SCT050 SCT300
     FM251600 11017G25KT P6SM SCT020 BKN040
     FM260100 10011KT P6SM FEW020 SCT040=



000
FTUS42 KMFL 251132
TAFFLL
TAF
KFLL 251132Z 2512/2612 10015KT P6SM VCSH SCT020 SCT030 SCT050
     FM251600 11018G26KT P6SM FEW020 SCT040
     FM260000 10014KT P6SM FEW020 SCT040=



000
FTUS42 KMFL 251132
TAFAPF
TAF
KAPF 251132Z 2512/2612 06007KT P6SM SKC
     FM251400 10012G18KT P6SM SCT025
     FM251900 15015KT P6SM VCTS SCT025CB BKN050
      TEMPO 2520/2522 6SM SHRA BKN035
     FM260000 09008KT P6SM FEW025=



000
FTUS42 KMFL 251132
TAFMIA
TAF
KMIA 251132Z 2512/2612 10012KT P6SM SCT025 SCT050 SCT300
     FM251600 11017G25KT P6SM SCT020 BKN040
     FM260100 10011KT P6SM FEW020 SCT040=



000
FTUS42 KMFL 251132
TAFPBI
TAF
KPBI 251132Z 2512/2612 11013KT P6SM VCSH FEW020 SCT050 SCT250
     FM251600 11018G26KT P6SM FEW025 SCT040
     FM260000 10013KT P6SM FEW025 SCT040=



000
FTUS42 KMFL 250859 AAA
TAFPBI
TAF AMD
KPBI 250859Z 2509/2606 12012KT P6SM FEW020 SCT050
     FM251400 11018G29KT P6SM FEW025 SCT040
     FM260000 10013KT P6SM FEW025 SCT040=



000
FTUS42 KMFL 250859 AAA
TAFFLL
TAF AMD
KFLL 250859Z 2509/2606 10012KT P6SM SCT030 SCT050
     FM251400 11020G30KT P6SM FEW020 SCT040
     FM260000 10015KT P6SM FEW020 SCT040=



000
FTUS42 KMFL 250859 AAA
TAFMIA
TAF AMD
KMIA 250859Z 2509/2606 10012KT P6SM SCT024 SCT300
     FM251400 11018G29KT P6SM FEW020 SCT040
     FM260000 10012KT P6SM FEW020 SCT040=



000
FTUS42 KMFL 250859 AAA
TAFAPF
TAF AMD
KAPF 250859Z 2509/2606 06007KT P6SM SKC
     FM251400 10012KT P6SM SCT025
     FM251900 11015KT P6SM VCSH SCT025 SCT050
     FM260000 09008KT P6SM FEW025=



000
FTUS42 KMFL 250859 AAA
TAFPBI
TAF AMD
KPBI 250859Z 2509/2606 12012KT P6SM FEW020 SCT050
     FM251400 11018G29KT P6SM FEW025 SCT040
     FM260000 10013KT P6SM FEW025 SCT040=



000
FTUS42 KMFL 250859 AAA
TAFMIA
TAF AMD
KMIA 250859Z 2509/2606 10012KT P6SM SCT024 SCT300
     FM251400 11018G29KT P6SM FEW020 SCT040
     FM260000 10012KT P6SM FEW020 SCT040=



000
FTUS42 KMFL 250859 AAA
TAFFLL
TAF AMD
KFLL 250859Z 2509/2606 10012KT P6SM SCT030 SCT050
     FM251400 11020G30KT P6SM FEW020 SCT040
     FM260000 10015KT P6SM FEW020 SCT040=



000
FTUS42 KMFL 250859 AAA
TAFAPF
TAF AMD
KAPF 250859Z 2509/2606 06007KT P6SM SKC
     FM251400 10012KT P6SM SCT025
     FM251900 11015KT P6SM VCSH SCT025 SCT050
     FM260000 09008KT P6SM FEW025=



000
FTUS42 KMFL 250536
TAFFLL
TAF
KFLL 250536Z 2506/2606 11013KT P6SM SCT025 SCT050
     FM251400 11020G30KT P6SM FEW020 SCT040
     FM260000 10015KT P6SM FEW020 SCT040=



000
FTUS42 KMFL 250536
TAFAPF
TAF
KAPF 250536Z 2506/2606 08007KT P6SM FEW025
     FM251400 10012KT P6SM SCT025
     FM251900 11015KT P6SM VCSH SCT025 SCT050
     FM260000 09008KT P6SM FEW025=



000
FTUS42 KMFL 250536
TAFMIA
TAF
KMIA 250536Z 2506/2606 09011KT P6SM FEW025 SCT040
     FM251400 11018G29KT P6SM FEW020 SCT040
     FM260000 10012KT P6SM FEW020 SCT040=



000
FTUS42 KMFL 250536
TAFPBI
TAF
KPBI 250536Z 2506/2606 11013KT P6SM FEW025 SCT040
     FM251400 11018G29KT P6SM FEW025 SCT040
     FM260000 10013KT P6SM FEW025 SCT040=



000
FTUS42 KMFL 250536
TAFMIA
TAF
KMIA 250536Z 2506/2606 09011KT P6SM FEW025 SCT040
     FM251400 11018G29KT P6SM FEW020 SCT040
     FM260000 10012KT P6SM FEW020 SCT040=



000
FTUS42 KMFL 250536
TAFPBI
TAF
KPBI 250536Z 2506/2606 11013KT P6SM FEW025 SCT040
     FM251400 11018G29KT P6SM FEW025 SCT040
     FM260000 10013KT P6SM FEW025 SCT040=



000
FTUS42 KMFL 250536
TAFFLL
TAF
KFLL 250536Z 2506/2606 11013KT P6SM SCT025 SCT050
     FM251400 11020G30KT P6SM FEW020 SCT040
     FM260000 10015KT P6SM FEW020 SCT040=



000
FTUS42 KMFL 250536
TAFAPF
TAF
KAPF 250536Z 2506/2606 08007KT P6SM FEW025
     FM251400 10012KT P6SM SCT025
     FM251900 11015KT P6SM VCSH SCT025 SCT050
     FM260000 09008KT P6SM FEW025=



000
FTUS42 KMFL 250315 AAA
TAFMIA
TAF AMD
KMIA 250315Z 2503/2524 10012KT P6SM FEW025 SCT040
     FM251400 11013G18KT P6SM FEW020 SCT040
     FM251700 11018G29KT P6SM FEW020 SCT040=



000
FTUS42 KMFL 250315 AAA
TAFAPF
TAF AMD
KAPF 250315Z 2503/2524 09007KT P6SM SKC
     FM251400 11012KT P6SM SCT025
     FM251900 11009KT P6SM VCSH SCT025 SCT050=



000
FTUS42 KMFL 250315 AAA
TAFFLL
TAF AMD
KFLL 250315Z 2503/2524 09015KT P6SM VCSH FEW025 SCT040
     FM251500 11018G29KT P6SM FEW020 SCT040=



000
FTUS42 KMFL 250315 AAB
TAFPBI
TAF AMD
KPBI 250315Z 2503/2524 12011KT P6SM VCSH FEW020 SCT040
     FM251400 11013G18KT P6SM FEW020 SCT040
     FM251700 11019G29KT P6SM FEW020 SCT040=



000
FTUS42 KMFL 250315 AAA
TAFFLL
TAF AMD
KFLL 250315Z 2503/2524 09015KT P6SM VCSH FEW025 SCT040
     FM251500 11018G29KT P6SM FEW020 SCT040=



000
FTUS42 KMFL 250315 AAA
TAFMIA
TAF AMD
KMIA 250315Z 2503/2524 10012KT P6SM FEW025 SCT040
     FM251400 11013G18KT P6SM FEW020 SCT040
     FM251700 11018G29KT P6SM FEW020 SCT040=



000
FTUS42 KMFL 250315 AAB
TAFPBI
TAF AMD
KPBI 250315Z 2503/2524 12011KT P6SM VCSH FEW020 SCT040
     FM251400 11013G18KT P6SM FEW020 SCT040
     FM251700 11019G29KT P6SM FEW020 SCT040=



000
FTUS42 KMFL 250315 AAB
TAFPBI
TAF AMD
KPBI 250315Z 2503/2524 12011KT P6SM VCSH FEW020 SCT040
     FM251400 11013G18KT P6SM FEW020 SCT040
     FM251700 11019G29KT P6SM FEW020 SCT040=



000
FTUS42 KMFL 250315 AAA
TAFFLL
TAF AMD
KFLL 250315Z 2503/2524 09015KT P6SM VCSH FEW025 SCT040
     FM251500 11018G29KT P6SM FEW020 SCT040=



000
FTUS42 KMFL 250315 AAA
TAFAPF
TAF AMD
KAPF 250315Z 2503/2524 09007KT P6SM SKC
     FM251400 11012KT P6SM SCT025
     FM251900 11009KT P6SM VCSH SCT025 SCT050=



000
FTUS42 KMFL 250052 AAA
TAFPBI
TAF AMD
KPBI 250052Z 2501/2524 10015KT P6SM VCSH SCT025 SCT060
      TEMPO 2501/2505 BKN025=



000
FTUS42 KMFL 250052 AAA
TAFPBI
TAF AMD
KPBI 250052Z 2501/2524 10015KT P6SM VCSH SCT025 SCT060
      TEMPO 2501/2505 BKN025=



000
FTUS42 KMFL 242320
TAFMIA
TAF
KMIA 242320Z 2500/2524 10014KT P6SM SCT025 SCT080
     FM250400 10010KT P6SM VCSH SCT025 SCT050
     FM251400 11016KT P6SM VCSH SCT025 BKN060=



000
FTUS42 KMFL 242320
TAFFLL
TAF
KFLL 242320Z 2500/2524 10014KT P6SM SCT025 SCT070
     FM250400 10011KT P6SM VCSH SCT025 SCT050
     FM251400 11016KT P6SM VCSH SCT025 BKN060=



000
FTUS42 KMFL 242320
TAFFLL
TAF
KFLL 242320Z 2500/2524 10014KT P6SM SCT025 SCT070
     FM250400 10011KT P6SM VCSH SCT025 SCT050
     FM251400 11016KT P6SM VCSH SCT025 BKN060=



000
FTUS42 KMFL 242320
TAFAPF
TAF
KAPF 242320Z 2500/2524 15006KT P6SM VCSH FEW030 BKN060
     FM250200 07005KT P6SM FEW050
     FM251400 11012KT P6SM SCT025
     FM251900 11009KT P6SM VCSH SCT025 SCT050=



000
FTUS42 KMFL 242320
TAFPBI
TAF
KPBI 242320Z 2500/2524 10015KT P6SM VCSH FEW025 SCT060=



000
FTUS42 KMFL 242320
TAFAPF
TAF
KAPF 242320Z 2500/2524 15006KT P6SM VCSH FEW030 BKN060
     FM250200 07005KT P6SM FEW050
     FM251400 11012KT P6SM SCT025
     FM251900 11009KT P6SM VCSH SCT025 SCT050=



000
FTUS42 KMFL 242320
TAFAPF
TAF
KAPF 242320Z 2500/2524 15006KT P6SM VCSH FEW030 BKN060
     FM250200 07005KT P6SM FEW050
     FM251400 11012KT P6SM SCT025
     FM251900 11009KT P6SM VCSH SCT025 SCT050=



000
FTUS42 KMFL 242320
TAFPBI
TAF
KPBI 242320Z 2500/2524 10015KT P6SM VCSH FEW025 SCT060=



000
FTUS42 KMFL 242320
TAFPBI
TAF
KPBI 242320Z 2500/2524 10015KT P6SM VCSH FEW025 SCT060=



000
FTUS42 KMFL 242320
TAFPBI
TAF
KPBI 242320Z 2500/2524 10015KT P6SM VCSH FEW025 SCT060=



000
FTUS42 KMFL 242320
TAFMIA
TAF
KMIA 242320Z 2500/2524 10014KT P6SM SCT025 SCT080
     FM250400 10010KT P6SM VCSH SCT025 SCT050
     FM251400 11016KT P6SM VCSH SCT025 BKN060=



000
FTUS42 KMFL 242320
TAFAPF
TAF
KAPF 242320Z 2500/2524 15006KT P6SM VCSH FEW030 BKN060
     FM250200 07005KT P6SM FEW050
     FM251400 11012KT P6SM SCT025
     FM251900 11009KT P6SM VCSH SCT025 SCT050=



000
FTUS42 KMFL 242320
TAFMIA
TAF
KMIA 242320Z 2500/2524 10014KT P6SM SCT025 SCT080
     FM250400 10010KT P6SM VCSH SCT025 SCT050
     FM251400 11016KT P6SM VCSH SCT025 BKN060=



000
FTUS42 KMFL 242320
TAFFLL
TAF
KFLL 242320Z 2500/2524 10014KT P6SM SCT025 SCT070
     FM250400 10011KT P6SM VCSH SCT025 SCT050
     FM251400 11016KT P6SM VCSH SCT025 BKN060=



000
FTUS42 KMFL 242320
TAFMIA
TAF
KMIA 242320Z 2500/2524 10014KT P6SM SCT025 SCT080
     FM250400 10010KT P6SM VCSH SCT025 SCT050
     FM251400 11016KT P6SM VCSH SCT025 BKN060=



000
FTUS42 KMFL 242252 AAB
TAFPBI
TAF AMD
KPBI 242252Z 2423/2518 10012KT P6SM VCSH SCT025 SCT050
     FM251400 11015KT P6SM VCSH SCT025 BKN060=



    US Dept of Commerce
    National Oceanic and Atmospheric Administration
    National Weather Service
    1325 East West Highway
    Silver Spring, MD 20910
    Page Author: NWS Internet Services Team
Disclaimer
Information Quality
Credits
Glossary
Privacy Policy
Freedom of Information Act (FOIA)
About Us
Career Opportunities